sensor_id;sensor_type;location;lat;lon;timestamp;temperature;humidity
42755;DHT22;28407;51.830;5.684;2023-04-25T00:00:01;9.80;75.10
42755;DHT22;28407;51.830;5.684;2023-04-25T00:02:01;9.80;75.10
42755;DHT22;28407;51.830;5.684;2023-04-25T00:04:03;9.70;75.10
42755;DHT22;28407;51.830;5.684;2023-04-25T00:06:06;9.70;75.10
42755;DHT22;28407;51.830;5.684;2023-04-25T00:08:07;9.70;75.10
42755;DHT22;28407;51.830;5.684;2023-04-25T00:10:08;9.70;75.10
42755;DHT22;28407;51.830;5.684;2023-04-25T00:12:09;9.70;75.20
42755;DHT22;28407;51.830;5.684;2023-04-25T00:14:09;9.60;75.20
42755;DHT22;28407;51.830;5.684;2023-04-25T00:16:10;9.60;75.30
42755;DHT22;28407;51.830;5.684;2023-04-25T00:18:11;9.60;75.30
42755;DHT22;28407;51.830;5.684;2023-04-25T00:20:11;9.60;75.30
42755;DHT22;28407;51.830;5.684;2023-04-25T00:22:12;9.60;75.30
42755;DHT22;28407;51.830;5.684;2023-04-25T00:24:13;9.60;75.30
42755;DHT22;28407;51.830;5.684;2023-04-25T00:26:14;9.60;75.40
42755;DHT22;28407;51.830;5.684;2023-04-25T00:28:15;9.50;75.30
42755;DHT22;28407;51.830;5.684;2023-04-25T00:30:16;9.50;75.30
42755;DHT22;28407;51.830;5.684;2023-04-25T00:32:16;9.50;75.30
42755;DHT22;28407;51.830;5.684;2023-04-25T00:34:17;9.50;75.40
42755;DHT22;28407;51.830;5.684;2023-04-25T00:36:18;9.50;75.40
42755;DHT22;28407;51.830;5.684;2023-04-25T00:38:19;9.50;75.40
42755;DHT22;28407;51.830;5.684;2023-04-25T00:40:19;9.50;75.40
42755;DHT22;28407;51.830;5.684;2023-04-25T00:42:20;9.50;75.50
42755;DHT22;28407;51.830;5.684;2023-04-25T00:44:21;9.40;75.40
42755;DHT22;28407;51.830;5.684;2023-04-25T00:46:22;9.50;75.50
42755;DHT22;28407;51.830;5.684;2023-04-25T00:48:23;9.50;75.50
42755;DHT22;28407;51.830;5.684;2023-04-25T00:50:24;9.40;75.50
42755;DHT22;28407;51.830;5.684;2023-04-25T00:52:25;9.40;75.50
42755;DHT22;28407;51.830;5.684;2023-04-25T00:54:25;9.40;75.60
42755;DHT22;28407;51.830;5.684;2023-04-25T00:56:26;9.50;75.60
42755;DHT22;28407;51.830;5.684;2023-04-25T00:58:26;9.40;75.60
42755;DHT22;28407;51.830;5.684;2023-04-25T01:00:27;9.40;75.60
42755;DHT22;28407;51.830;5.684;2023-04-25T01:02:28;9.40;75.70
42755;DHT22;28407;51.830;5.684;2023-04-25T01:04:30;9.40;75.70
42755;DHT22;28407;51.830;5.684;2023-04-25T01:06:31;9.40;75.70
42755;DHT22;28407;51.830;5.684;2023-04-25T01:08:32;9.40;75.70
42755;DHT22;28407;51.830;5.684;2023-04-25T01:10:32;9.30;75.70
42755;DHT22;28407;51.830;5.684;2023-04-25T01:12:33;9.30;75.70
42755;DHT22;28407;51.830;5.684;2023-04-25T01:14:34;9.30;75.80
42755;DHT22;28407;51.830;5.684;2023-04-25T01:16:35;9.30;75.80
42755;DHT22;28407;51.830;5.684;2023-04-25T01:18:39;9.30;75.80
42755;DHT22;28407;51.830;5.684;2023-04-25T01:20:41;9.30;75.90
42755;DHT22;28407;51.830;5.684;2023-04-25T01:22:42;9.30;76.00
42755;DHT22;28407;51.830;5.684;2023-04-25T01:24:44;9.20;75.80
42755;DHT22;28407;51.830;5.684;2023-04-25T01:26:45;9.20;75.80
42755;DHT22;28407;51.830;5.684;2023-04-25T01:28:51;9.30;75.90
42755;DHT22;28407;51.830;5.684;2023-04-25T01:30:52;9.20;75.90
42755;DHT22;28407;51.830;5.684;2023-04-25T01:32:55;9.20;75.90
42755;DHT22;28407;51.830;5.684;2023-04-25T01:34:56;9.20;75.90
42755;DHT22;28407;51.830;5.684;2023-04-25T01:36:59;9.20;75.90
42755;DHT22;28407;51.830;5.684;2023-04-25T01:39:01;9.20;75.90
42755;DHT22;28407;51.830;5.684;2023-04-25T01:41:02;9.20;75.90
42755;DHT22;28407;51.830;5.684;2023-04-25T01:43:02;9.20;76.00
42755;DHT22;28407;51.830;5.684;2023-04-25T01:45:04;9.10;75.90
42755;DHT22;28407;51.830;5.684;2023-04-25T01:47:07;9.10;75.90
42755;DHT22;28407;51.830;5.684;2023-04-25T01:49:08;9.10;76.00
42755;DHT22;28407;51.830;5.684;2023-04-25T01:51:09;9.10;76.00
42755;DHT22;28407;51.830;5.684;2023-04-25T01:53:13;9.10;76.10
42755;DHT22;28407;51.830;5.684;2023-04-25T01:55:13;9.00;76.00
42755;DHT22;28407;51.830;5.684;2023-04-25T01:57:23;9.00;76.00
42755;DHT22;28407;51.830;5.684;2023-04-25T01:59:24;9.00;76.10
42755;DHT22;28407;51.830;5.684;2023-04-25T02:01:50;9.00;76.10
42755;DHT22;28407;51.830;5.684;2023-04-25T02:03:58;9.00;76.10
42755;DHT22;28407;51.830;5.684;2023-04-25T02:06:07;8.90;76.10
42755;DHT22;28407;51.830;5.684;2023-04-25T02:08:11;8.90;76.10
42755;DHT22;28407;51.830;5.684;2023-04-25T02:10:12;8.90;76.10
42755;DHT22;28407;51.830;5.684;2023-04-25T02:12:25;8.90;76.10
42755;DHT22;28407;51.830;5.684;2023-04-25T02:14:45;8.90;76.20
42755;DHT22;28407;51.830;5.684;2023-04-25T02:17:00;8.80;76.10
42755;DHT22;28407;51.830;5.684;2023-04-25T02:19:01;8.80;76.10
42755;DHT22;28407;51.830;5.684;2023-04-25T02:21:02;8.80;76.10
42755;DHT22;28407;51.830;5.684;2023-04-25T02:23:03;8.80;76.20
42755;DHT22;28407;51.830;5.684;2023-04-25T02:25:04;8.80;76.10
42755;DHT22;28407;51.830;5.684;2023-04-25T02:27:05;8.80;76.10
42755;DHT22;28407;51.830;5.684;2023-04-25T02:29:06;8.80;76.20
42755;DHT22;28407;51.830;5.684;2023-04-25T02:31:07;8.70;76.20
42755;DHT22;28407;51.830;5.684;2023-04-25T02:33:08;8.70;76.10
42755;DHT22;28407;51.830;5.684;2023-04-25T02:35:10;8.70;76.10
42755;DHT22;28407;51.830;5.684;2023-04-25T02:37:10;8.70;76.10
42755;DHT22;28407;51.830;5.684;2023-04-25T02:39:11;8.60;76.00
42755;DHT22;28407;51.830;5.684;2023-04-25T02:41:12;8.70;76.80
42755;DHT22;28407;51.830;5.684;2023-04-25T02:43:12;8.70;76.10
42755;DHT22;28407;51.830;5.684;2023-04-25T02:45:13;8.60;76.00
42755;DHT22;28407;51.830;5.684;2023-04-25T02:47:14;8.60;76.00
42755;DHT22;28407;51.830;5.684;2023-04-25T02:49:14;8.50;76.00
42755;DHT22;28407;51.830;5.684;2023-04-25T02:51:15;8.60;76.10
42755;DHT22;28407;51.830;5.684;2023-04-25T02:53:17;8.60;76.10
42755;DHT22;28407;51.830;5.684;2023-04-25T02:55:22;8.60;76.10
42755;DHT22;28407;51.830;5.684;2023-04-25T02:57:23;8.50;76.00
42755;DHT22;28407;51.830;5.684;2023-04-25T02:59:23;8.50;76.00
42755;DHT22;28407;51.830;5.684;2023-04-25T03:01:24;8.50;76.00
42755;DHT22;28407;51.830;5.684;2023-04-25T03:03:25;8.50;76.00
42755;DHT22;28407;51.830;5.684;2023-04-25T03:05:26;8.40;76.00
42755;DHT22;28407;51.830;5.684;2023-04-25T03:07:26;8.40;76.00
42755;DHT22;28407;51.830;5.684;2023-04-25T03:09:27;8.40;76.00
42755;DHT22;28407;51.830;5.684;2023-04-25T03:11:27;8.40;76.00
42755;DHT22;28407;51.830;5.684;2023-04-25T03:13:28;8.40;76.00
42755;DHT22;28407;51.830;5.684;2023-04-25T03:15:30;8.40;76.10
42755;DHT22;28407;51.830;5.684;2023-04-25T03:17:31;8.30;76.00
42755;DHT22;28407;51.830;5.684;2023-04-25T03:19:32;8.30;76.00
42755;DHT22;28407;51.830;5.684;2023-04-25T03:21:35;8.30;76.10
42755;DHT22;28407;51.830;5.684;2023-04-25T03:23:36;8.30;76.10
42755;DHT22;28407;51.830;5.684;2023-04-25T03:25:36;8.20;76.00
42755;DHT22;28407;51.830;5.684;2023-04-25T03:27:38;8.20;76.00
42755;DHT22;28407;51.830;5.684;2023-04-25T03:29:40;8.20;76.00
42755;DHT22;28407;51.830;5.684;2023-04-25T03:31:41;8.20;76.00
42755;DHT22;28407;51.830;5.684;2023-04-25T03:33:41;8.20;76.00
42755;DHT22;28407;51.830;5.684;2023-04-25T03:35:42;8.20;76.00
42755;DHT22;28407;51.830;5.684;2023-04-25T03:37:43;8.20;76.10
42755;DHT22;28407;51.830;5.684;2023-04-25T03:39:50;8.10;76.00
42755;DHT22;28407;51.830;5.684;2023-04-25T03:41:52;8.10;76.00
42755;DHT22;28407;51.830;5.684;2023-04-25T03:43:53;8.10;76.10
42755;DHT22;28407;51.830;5.684;2023-04-25T03:45:54;8.10;76.10
42755;DHT22;28407;51.830;5.684;2023-04-25T03:47:56;8.10;76.10
42755;DHT22;28407;51.830;5.684;2023-04-25T03:49:57;8.10;76.10
42755;DHT22;28407;51.830;5.684;2023-04-25T03:51:58;8.00;76.10
42755;DHT22;28407;51.830;5.684;2023-04-25T03:53:59;8.10;76.20
42755;DHT22;28407;51.830;5.684;2023-04-25T03:56:25;8.10;76.20
42755;DHT22;28407;51.830;5.684;2023-04-25T03:58:33;8.00;76.20
42755;DHT22;28407;51.830;5.684;2023-04-25T04:00:35;8.00;76.20
42755;DHT22;28407;51.830;5.684;2023-04-25T04:02:36;8.10;76.30
42755;DHT22;28407;51.830;5.684;2023-04-25T04:04:37;8.00;76.20
42755;DHT22;28407;51.830;5.684;2023-04-25T04:06:38;8.00;76.20
42755;DHT22;28407;51.830;5.684;2023-04-25T04:08:45;8.00;76.20
42755;DHT22;28407;51.830;5.684;2023-04-25T04:10:46;8.10;76.40
42755;DHT22;28407;51.830;5.684;2023-04-25T04:12:47;8.10;76.30
42755;DHT22;28407;51.830;5.684;2023-04-25T04:14:48;8.10;76.30
42755;DHT22;28407;51.830;5.684;2023-04-25T04:16:50;8.10;76.30
42755;DHT22;28407;51.830;5.684;2023-04-25T04:18:51;8.10;76.30
42755;DHT22;28407;51.830;5.684;2023-04-25T04:20:51;8.10;76.30
42755;DHT22;28407;51.830;5.684;2023-04-25T04:22:52;8.10;76.40
42755;DHT22;28407;51.830;5.684;2023-04-25T04:24:53;8.10;76.40
42755;DHT22;28407;51.830;5.684;2023-04-25T04:27:05;8.10;76.40
42755;DHT22;28407;51.830;5.684;2023-04-25T04:29:19;8.10;76.40
42755;DHT22;28407;51.830;5.684;2023-04-25T04:31:32;8.10;76.40
42755;DHT22;28407;51.830;5.684;2023-04-25T04:33:33;8.10;76.40
42755;DHT22;28407;51.830;5.684;2023-04-25T04:35:37;8.10;76.40
42755;DHT22;28407;51.830;5.684;2023-04-25T04:37:38;8.20;76.40
42755;DHT22;28407;51.830;5.684;2023-04-25T04:39:40;8.10;76.40
42755;DHT22;28407;51.830;5.684;2023-04-25T04:41:48;8.20;76.40
42755;DHT22;28407;51.830;5.684;2023-04-25T04:44:08;8.20;76.50
42755;DHT22;28407;51.830;5.684;2023-04-25T04:46:29;8.20;76.40
42755;DHT22;28407;51.830;5.684;2023-04-25T04:48:51;8.20;76.40
42755;DHT22;28407;51.830;5.684;2023-04-25T04:51:12;8.20;76.40
42755;DHT22;28407;51.830;5.684;2023-04-25T04:53:25;8.20;76.30
42755;DHT22;28407;51.830;5.684;2023-04-25T04:55:43;8.30;76.40
42755;DHT22;28407;51.830;5.684;2023-04-25T04:58:10;8.30;76.40
42755;DHT22;28407;51.830;5.684;2023-04-25T05:00:20;8.30;76.40
42755;DHT22;28407;51.830;5.684;2023-04-25T05:02:44;8.30;76.30
42755;DHT22;28407;51.830;5.684;2023-04-25T05:05:03;8.40;76.30
42755;DHT22;28407;51.830;5.684;2023-04-25T05:07:24;8.40;76.30
42755;DHT22;28407;51.830;5.684;2023-04-25T05:09:39;8.40;76.30
42755;DHT22;28407;51.830;5.684;2023-04-25T05:11:53;8.40;76.20
42755;DHT22;28407;51.830;5.684;2023-04-25T05:14:09;8.50;76.30
42755;DHT22;28407;51.830;5.684;2023-04-25T05:16:19;8.50;76.20
42755;DHT22;28407;51.830;5.684;2023-04-25T05:18:29;8.50;76.20
42755;DHT22;28407;51.830;5.684;2023-04-25T05:20:49;8.60;76.20
42755;DHT22;28407;51.830;5.684;2023-04-25T05:23:08;8.60;76.20
42755;DHT22;28407;51.830;5.684;2023-04-25T05:25:21;8.60;76.20
42755;DHT22;28407;51.830;5.684;2023-04-25T05:27:33;8.60;76.10
42755;DHT22;28407;51.830;5.684;2023-04-25T05:30:09;8.60;76.10
42755;DHT22;28407;51.830;5.684;2023-04-25T05:32:22;8.60;76.10
42755;DHT22;28407;51.830;5.684;2023-04-25T05:34:24;8.70;76.20
42755;DHT22;28407;51.830;5.684;2023-04-25T05:36:29;8.60;76.20
42755;DHT22;28407;51.830;5.684;2023-04-25T05:38:31;8.70;76.20
42755;DHT22;28407;51.830;5.684;2023-04-25T05:40:50;8.70;76.20
42755;DHT22;28407;51.830;5.684;2023-04-25T05:43:07;8.70;76.20
42755;DHT22;28407;51.830;5.684;2023-04-25T05:45:26;8.70;76.20
42755;DHT22;28407;51.830;5.684;2023-04-25T05:47:27;8.80;76.20
42755;DHT22;28407;51.830;5.684;2023-04-25T05:49:53;8.80;76.20
42755;DHT22;28407;51.830;5.684;2023-04-25T05:52:04;8.80;76.10
42755;DHT22;28407;51.830;5.684;2023-04-25T05:54:17;8.80;76.10
42755;DHT22;28407;51.830;5.684;2023-04-25T05:56:18;8.80;76.10
42755;DHT22;28407;51.830;5.684;2023-04-25T05:58:20;8.90;76.10
42755;DHT22;28407;51.830;5.684;2023-04-25T06:00:21;8.90;76.00
42755;DHT22;28407;51.830;5.684;2023-04-25T06:02:23;8.90;76.00
42755;DHT22;28407;51.830;5.684;2023-04-25T06:04:25;8.90;76.00
42755;DHT22;28407;51.830;5.684;2023-04-25T06:06:25;8.90;76.00
42755;DHT22;28407;51.830;5.684;2023-04-25T06:08:27;9.00;76.00
42755;DHT22;28407;51.830;5.684;2023-04-25T06:10:28;9.00;76.00
42755;DHT22;28407;51.830;5.684;2023-04-25T06:12:29;9.00;75.80
42755;DHT22;28407;51.830;5.684;2023-04-25T06:14:29;9.00;75.80
42755;DHT22;28407;51.830;5.684;2023-04-25T06:16:30;9.00;75.80
42755;DHT22;28407;51.830;5.684;2023-04-25T06:18:31;9.10;75.80
42755;DHT22;28407;51.830;5.684;2023-04-25T06:20:32;9.20;75.80
42755;DHT22;28407;51.830;5.684;2023-04-25T06:22:34;9.20;75.70
42755;DHT22;28407;51.830;5.684;2023-04-25T06:24:35;9.20;75.60
42755;DHT22;28407;51.830;5.684;2023-04-25T06:26:38;9.30;75.50
42755;DHT22;28407;51.830;5.684;2023-04-25T06:28:39;9.30;75.50
42755;DHT22;28407;51.830;5.684;2023-04-25T06:30:39;9.40;75.40
42755;DHT22;28407;51.830;5.684;2023-04-25T06:32:45;9.40;75.40
42755;DHT22;28407;51.830;5.684;2023-04-25T06:34:45;9.50;75.40
42755;DHT22;28407;51.830;5.684;2023-04-25T06:36:46;9.50;75.20
42755;DHT22;28407;51.830;5.684;2023-04-25T06:38:49;9.60;75.10
42755;DHT22;28407;51.830;5.684;2023-04-25T06:40:50;9.60;75.10
42755;DHT22;28407;51.830;5.684;2023-04-25T06:42:52;9.60;75.00
42755;DHT22;28407;51.830;5.684;2023-04-25T06:45:24;9.60;74.90
42755;DHT22;28407;51.830;5.684;2023-04-25T06:47:27;9.70;74.90
42755;DHT22;28407;51.830;5.684;2023-04-25T06:49:27;9.70;74.80
42755;DHT22;28407;51.830;5.684;2023-04-25T06:51:28;9.70;74.70
42755;DHT22;28407;51.830;5.684;2023-04-25T06:53:30;9.80;74.70
42755;DHT22;28407;51.830;5.684;2023-04-25T06:55:34;9.80;74.60
42755;DHT22;28407;51.830;5.684;2023-04-25T06:57:46;9.80;75.20
42755;DHT22;28407;51.830;5.684;2023-04-25T07:00:09;9.80;74.50
42755;DHT22;28407;51.830;5.684;2023-04-25T07:02:11;9.80;74.40
42755;DHT22;28407;51.830;5.684;2023-04-25T07:04:13;9.90;74.50
42755;DHT22;28407;51.830;5.684;2023-04-25T07:06:19;9.90;74.40
42755;DHT22;28407;51.830;5.684;2023-04-25T07:08:19;9.90;74.30
42755;DHT22;28407;51.830;5.684;2023-04-25T07:10:21;9.90;74.30
42755;DHT22;28407;51.830;5.684;2023-04-25T07:12:22;10.00;74.30
42755;DHT22;28407;51.830;5.684;2023-04-25T07:14:23;10.00;74.20
42755;DHT22;28407;51.830;5.684;2023-04-25T07:16:24;10.00;74.00
42755;DHT22;28407;51.830;5.684;2023-04-25T07:18:25;10.00;74.00
42755;DHT22;28407;51.830;5.684;2023-04-25T07:20:26;10.10;74.00
42755;DHT22;28407;51.830;5.684;2023-04-25T07:22:28;10.10;74.60
42755;DHT22;28407;51.830;5.684;2023-04-25T07:24:28;10.10;74.00
42755;DHT22;28407;51.830;5.684;2023-04-25T07:26:30;10.10;73.90
42755;DHT22;28407;51.830;5.684;2023-04-25T07:28:49;10.10;73.80
42755;DHT22;28407;51.830;5.684;2023-04-25T07:30:51;10.20;73.80
42755;DHT22;28407;51.830;5.684;2023-04-25T07:32:52;10.20;73.60
42755;DHT22;28407;51.830;5.684;2023-04-25T07:34:52;10.20;73.60
42755;DHT22;28407;51.830;5.684;2023-04-25T07:36:53;10.20;73.50
42755;DHT22;28407;51.830;5.684;2023-04-25T07:38:55;10.20;73.50
42755;DHT22;28407;51.830;5.684;2023-04-25T07:40:55;10.20;73.40
42755;DHT22;28407;51.830;5.684;2023-04-25T07:42:56;10.20;73.20
42755;DHT22;28407;51.830;5.684;2023-04-25T07:45:17;10.30;73.20
42755;DHT22;28407;51.830;5.684;2023-04-25T07:47:18;10.30;73.10
42755;DHT22;28407;51.830;5.684;2023-04-25T07:49:21;10.30;73.00
42755;DHT22;28407;51.830;5.684;2023-04-25T07:51:23;10.30;72.90
42755;DHT22;28407;51.830;5.684;2023-04-25T07:53:25;10.30;72.90
42755;DHT22;28407;51.830;5.684;2023-04-25T07:55:30;10.30;72.90
42755;DHT22;28407;51.830;5.684;2023-04-25T07:57:42;10.30;72.80
42755;DHT22;28407;51.830;5.684;2023-04-25T07:59:43;10.30;72.80
42755;DHT22;28407;51.830;5.684;2023-04-25T08:01:44;10.40;72.70
42755;DHT22;28407;51.830;5.684;2023-04-25T08:03:45;10.40;72.60
42755;DHT22;28407;51.830;5.684;2023-04-25T08:05:53;10.40;72.50
42755;DHT22;28407;51.830;5.684;2023-04-25T08:07:54;10.50;72.40
42755;DHT22;28407;51.830;5.684;2023-04-25T08:09:55;10.50;72.20
42755;DHT22;28407;51.830;5.684;2023-04-25T08:12:01;10.50;72.00
42755;DHT22;28407;51.830;5.684;2023-04-25T08:14:05;10.60;71.90
42755;DHT22;28407;51.830;5.684;2023-04-25T08:16:07;10.70;71.80
42755;DHT22;28407;51.830;5.684;2023-04-25T08:18:08;10.70;71.60
42755;DHT22;28407;51.830;5.684;2023-04-25T08:20:09;10.70;71.50
42755;DHT22;28407;51.830;5.684;2023-04-25T08:22:11;10.70;71.40
42755;DHT22;28407;51.830;5.684;2023-04-25T08:24:23;10.80;71.20
42755;DHT22;28407;51.830;5.684;2023-04-25T08:26:28;10.80;70.90
42755;DHT22;28407;51.830;5.684;2023-04-25T08:28:29;10.80;70.70
42755;DHT22;28407;51.830;5.684;2023-04-25T08:30:31;10.80;70.60
42755;DHT22;28407;51.830;5.684;2023-04-25T08:32:32;10.80;70.50
42755;DHT22;28407;51.830;5.684;2023-04-25T08:35:09;10.90;70.40
42755;DHT22;28407;51.830;5.684;2023-04-25T08:37:10;10.90;70.20
42755;DHT22;28407;51.830;5.684;2023-04-25T08:39:27;11.00;70.00
42755;DHT22;28407;51.830;5.684;2023-04-25T08:41:57;11.00;69.90
42755;DHT22;28407;51.830;5.684;2023-04-25T08:43:58;11.10;69.60
42755;DHT22;28407;51.830;5.684;2023-04-25T08:46:01;11.10;69.40
42755;DHT22;28407;51.830;5.684;2023-04-25T08:48:16;11.20;69.20
42755;DHT22;28407;51.830;5.684;2023-04-25T08:50:17;11.20;69.10
42755;DHT22;28407;51.830;5.684;2023-04-25T08:52:22;11.20;68.80
42755;DHT22;28407;51.830;5.684;2023-04-25T08:54:23;11.20;68.70
42755;DHT22;28407;51.830;5.684;2023-04-25T08:56:28;11.30;68.60
42755;DHT22;28407;51.830;5.684;2023-04-25T08:58:29;11.20;68.50
42755;DHT22;28407;51.830;5.684;2023-04-25T09:00:30;11.20;68.40
42755;DHT22;28407;51.830;5.684;2023-04-25T09:02:31;11.20;68.30
42755;DHT22;28407;51.830;5.684;2023-04-25T09:04:32;11.30;68.30
42755;DHT22;28407;51.830;5.684;2023-04-25T09:06:33;11.30;68.10
42755;DHT22;28407;51.830;5.684;2023-04-25T09:08:37;11.30;68.10
42755;DHT22;28407;51.830;5.684;2023-04-25T09:10:38;11.30;68.00
42755;DHT22;28407;51.830;5.684;2023-04-25T09:12:39;11.30;67.70
42755;DHT22;28407;51.830;5.684;2023-04-25T09:14:42;11.30;67.50
42755;DHT22;28407;51.830;5.684;2023-04-25T09:21:28;11.40;67.40
42755;DHT22;28407;51.830;5.684;2023-04-25T09:23:43;11.40;67.20
42755;DHT22;28407;51.830;5.684;2023-04-25T09:25:47;11.40;67.00
42755;DHT22;28407;51.830;5.684;2023-04-25T09:27:53;11.50;67.00
42755;DHT22;28407;51.830;5.684;2023-04-25T09:30:03;11.50;66.80
42755;DHT22;28407;51.830;5.684;2023-04-25T09:32:34;11.60;66.70
42755;DHT22;28407;51.830;5.684;2023-04-25T09:34:51;11.60;66.50
42755;DHT22;28407;51.830;5.684;2023-04-25T09:36:54;11.70;66.40
42755;DHT22;28407;51.830;5.684;2023-04-25T09:39:14;11.70;66.00
42755;DHT22;28407;51.830;5.684;2023-04-25T09:41:24;11.80;65.80
42755;DHT22;28407;51.830;5.684;2023-04-25T09:43:25;11.90;65.60
42755;DHT22;28407;51.830;5.684;2023-04-25T09:45:29;12.00;65.50
42755;DHT22;28407;51.830;5.684;2023-04-25T09:47:31;12.00;65.30
42755;DHT22;28407;51.830;5.684;2023-04-25T09:49:32;12.00;65.20
42755;DHT22;28407;51.830;5.684;2023-04-25T09:51:37;12.00;65.20
42755;DHT22;28407;51.830;5.684;2023-04-25T09:53:43;12.00;65.20
42755;DHT22;28407;51.830;5.684;2023-04-25T09:56:00;12.00;65.20
42755;DHT22;28407;51.830;5.684;2023-04-25T09:58:04;12.00;65.30
42755;DHT22;28407;51.830;5.684;2023-04-25T10:00:09;12.00;65.40
42755;DHT22;28407;51.830;5.684;2023-04-25T10:02:18;11.90;65.40
42755;DHT22;28407;51.830;5.684;2023-04-25T10:04:25;11.90;65.50
42755;DHT22;28407;51.830;5.684;2023-04-25T10:06:41;11.90;65.60
42755;DHT22;28407;51.830;5.684;2023-04-25T10:08:44;11.90;65.70
42755;DHT22;28407;51.830;5.684;2023-04-25T10:10:45;11.90;65.70
42755;DHT22;28407;51.830;5.684;2023-04-25T10:12:47;11.80;65.80
42755;DHT22;28407;51.830;5.684;2023-04-25T10:14:47;11.80;66.60
42755;DHT22;28407;51.830;5.684;2023-04-25T10:16:48;11.80;65.80
42755;DHT22;28407;51.830;5.684;2023-04-25T10:18:50;11.80;65.70
42755;DHT22;28407;51.830;5.684;2023-04-25T10:20:51;11.80;65.60
42755;DHT22;28407;51.830;5.684;2023-04-25T10:22:54;11.80;65.50
42755;DHT22;28407;51.830;5.684;2023-04-25T10:24:57;11.90;65.20
42755;DHT22;28407;51.830;5.684;2023-04-25T10:26:58;12.00;64.90
42755;DHT22;28407;51.830;5.684;2023-04-25T10:29:01;12.10;64.60
42755;DHT22;28407;51.830;5.684;2023-04-25T10:31:07;12.20;64.30
42755;DHT22;28407;51.830;5.684;2023-04-25T10:33:18;12.30;63.90
42755;DHT22;28407;51.830;5.684;2023-04-25T10:35:24;12.40;63.50
42755;DHT22;28407;51.830;5.684;2023-04-25T10:37:25;12.50;63.30
42755;DHT22;28407;51.830;5.684;2023-04-25T10:39:27;12.50;63.00
42755;DHT22;28407;51.830;5.684;2023-04-25T10:41:28;12.60;62.70
42755;DHT22;28407;51.830;5.684;2023-04-25T10:45:54;12.90;62.20
42755;DHT22;28407;51.830;5.684;2023-04-25T10:47:54;12.90;61.70
42755;DHT22;28407;51.830;5.684;2023-04-25T10:49:55;13.00;61.80
42755;DHT22;28407;51.830;5.684;2023-04-25T10:54:18;13.10;61.60
42755;DHT22;28407;51.830;5.684;2023-04-25T10:56:20;13.00;61.50
42755;DHT22;28407;51.830;5.684;2023-04-25T10:58:22;13.10;61.50
42755;DHT22;28407;51.830;5.684;2023-04-25T11:00:23;13.00;61.30
42755;DHT22;28407;51.830;5.684;2023-04-25T11:02:27;13.00;61.50
42755;DHT22;28407;51.830;5.684;2023-04-25T11:04:33;12.90;61.50
42755;DHT22;28407;51.830;5.684;2023-04-25T11:09:02;12.90;61.70
42755;DHT22;28407;51.830;5.684;2023-04-25T11:11:02;12.80;61.80
42755;DHT22;28407;51.830;5.684;2023-04-25T11:13:03;12.90;62.00
42755;DHT22;28407;51.830;5.684;2023-04-25T11:15:06;12.90;61.90
42755;DHT22;28407;51.830;5.684;2023-04-25T11:17:07;13.00;61.90
42755;DHT22;28407;51.830;5.684;2023-04-25T11:19:09;13.00;61.80
42755;DHT22;28407;51.830;5.684;2023-04-25T11:21:10;13.00;61.80
42755;DHT22;28407;51.830;5.684;2023-04-25T11:23:11;13.00;61.50
42755;DHT22;28407;51.830;5.684;2023-04-25T11:25:13;13.00;61.50
42755;DHT22;28407;51.830;5.684;2023-04-25T11:27:14;13.10;61.50
42755;DHT22;28407;51.830;5.684;2023-04-25T11:29:15;13.10;62.00
42755;DHT22;28407;51.830;5.684;2023-04-25T11:31:15;13.10;61.20
42755;DHT22;28407;51.830;5.684;2023-04-25T11:33:16;13.20;61.10
42755;DHT22;28407;51.830;5.684;2023-04-25T11:35:18;13.20;61.00
42755;DHT22;28407;51.830;5.684;2023-04-25T11:37:19;13.30;60.80
42755;DHT22;28407;51.830;5.684;2023-04-25T11:39:20;13.40;60.60
42755;DHT22;28407;51.830;5.684;2023-04-25T11:41:21;13.40;60.40
42755;DHT22;28407;51.830;5.684;2023-04-25T11:43:22;13.50;60.20
42755;DHT22;28407;51.830;5.684;2023-04-25T11:45:23;13.60;60.10
42755;DHT22;28407;51.830;5.684;2023-04-25T11:47:31;13.60;59.90
42755;DHT22;28407;51.830;5.684;2023-04-25T11:49:31;13.70;59.70
42755;DHT22;28407;51.830;5.684;2023-04-25T11:51:43;13.70;59.60
42755;DHT22;28407;51.830;5.684;2023-04-25T11:53:46;13.80;59.60
42755;DHT22;28407;51.830;5.684;2023-04-25T11:55:47;13.80;59.50
42755;DHT22;28407;51.830;5.684;2023-04-25T11:57:49;13.80;59.50
42755;DHT22;28407;51.830;5.684;2023-04-25T11:59:53;13.80;59.50
42755;DHT22;28407;51.830;5.684;2023-04-25T12:01:53;13.80;59.50
42755;DHT22;28407;51.830;5.684;2023-04-25T12:03:54;13.90;59.40
42755;DHT22;28407;51.830;5.684;2023-04-25T12:06:02;14.00;59.40
42755;DHT22;28407;51.830;5.684;2023-04-25T12:08:13;14.10;59.20
42755;DHT22;28407;51.830;5.684;2023-04-25T12:10:16;14.20;59.20
42755;DHT22;28407;51.830;5.684;2023-04-25T12:12:16;14.40;59.10
42755;DHT22;28407;51.830;5.684;2023-04-25T12:14:22;14.50;58.80
42755;DHT22;28407;51.830;5.684;2023-04-25T12:16:24;14.60;58.80
42755;DHT22;28407;51.830;5.684;2023-04-25T12:18:25;14.70;58.70
42755;DHT22;28407;51.830;5.684;2023-04-25T12:20:31;14.70;58.50
42755;DHT22;28407;51.830;5.684;2023-04-25T12:22:32;14.80;58.50
42755;DHT22;28407;51.830;5.684;2023-04-25T12:24:34;14.80;58.40
42755;DHT22;28407;51.830;5.684;2023-04-25T12:26:59;14.90;58.20
42755;DHT22;28407;51.830;5.684;2023-04-25T12:29:01;15.00;57.80
42755;DHT22;28407;51.830;5.684;2023-04-25T12:31:05;15.20;57.70
42755;DHT22;28407;51.830;5.684;2023-04-25T12:33:06;15.30;57.30
42755;DHT22;28407;51.830;5.684;2023-04-25T12:35:07;15.20;57.20
42755;DHT22;28407;51.830;5.684;2023-04-25T12:37:08;15.20;57.10
42755;DHT22;28407;51.830;5.684;2023-04-25T12:39:13;15.10;57.20
42755;DHT22;28407;51.830;5.684;2023-04-25T12:41:15;15.00;57.50
42755;DHT22;28407;51.830;5.684;2023-04-25T12:43:16;14.90;57.60
42755;DHT22;28407;51.830;5.684;2023-04-25T12:45:17;14.80;57.70
42755;DHT22;28407;51.830;5.684;2023-04-25T12:47:18;14.80;57.90
42755;DHT22;28407;51.830;5.684;2023-04-25T12:49:18;14.90;57.90
42755;DHT22;28407;51.830;5.684;2023-04-25T12:51:19;14.90;57.60
42755;DHT22;28407;51.830;5.684;2023-04-25T12:53:21;14.90;57.30
42755;DHT22;28407;51.830;5.684;2023-04-25T12:55:22;14.90;57.20
42755;DHT22;28407;51.830;5.684;2023-04-25T12:57:23;14.90;57.10
42755;DHT22;28407;51.830;5.684;2023-04-25T12:59:23;14.80;57.10
42755;DHT22;28407;51.830;5.684;2023-04-25T13:01:25;14.80;57.00
42755;DHT22;28407;51.830;5.684;2023-04-25T13:03:25;14.80;56.90
42755;DHT22;28407;51.830;5.684;2023-04-25T13:05:26;14.80;56.70
42755;DHT22;28407;51.830;5.684;2023-04-25T13:07:27;14.90;57.10
42755;DHT22;28407;51.830;5.684;2023-04-25T13:09:27;15.00;56.20
42755;DHT22;28407;51.830;5.684;2023-04-25T13:11:28;15.10;56.00
42755;DHT22;28407;51.830;5.684;2023-04-25T13:13:29;15.20;56.30
42755;DHT22;28407;51.830;5.684;2023-04-25T13:15:29;15.40;55.50
42755;DHT22;28407;51.830;5.684;2023-04-25T13:17:30;15.50;55.10
42755;DHT22;28407;51.830;5.684;2023-04-25T13:19:31;15.70;54.80
42755;DHT22;28407;51.830;5.684;2023-04-25T13:21:31;15.70;54.60
42755;DHT22;28407;51.830;5.684;2023-04-25T13:23:35;15.70;55.10